Time;durP1;ratioP1;P1;durP2;ratioP2;P2;SDS_P1;SDS_P2;PMS_P1;PMS_P2;Temp;Humidity;BMP_temperature;BMP_pressure;BME280_temperature;BME280_humidity;BME280_pressure;Samples;Min_cycle;Max_cycle;Signal;HPM_P1;HPM_P2
2022/09/11 00:01:05;;;;;;;0.10;0.10;;;;;;;;;;5125911;27;20050;-58
2022/09/11 00:03:31;;;;;;;0.00;0.00;;;;;;;;;;5125746;27;20353;-58
2022/09/11 00:06:00;;;;;;;0.30;0.30;;;;;;;;;;5124833;27;20019;-57
2022/09/11 00:08:26;;;;;;;4.22;3.97;;;;;;;;;;5123281;27;20046;-57
2022/09/11 00:10:51;;;;;;;0.00;0.00;;;;;;;;;;5124688;27;20019;-57
2022/09/11 00:13:20;;;;;;;0.00;0.00;;;;;;;;;;5123526;27;20094;-58
2022/09/11 00:15:46;;;;;;;0.00;0.00;;;;;;;;;;5126924;27;20049;-58
2022/09/11 00:18:12;;;;;;;0.00;0.00;;;;;;;;;;5125666;27;20015;-58
2022/09/11 00:20:37;;;;;;;0.00;0.00;;;;;;;;;;5124462;27;20027;-59
2022/09/11 00:23:06;;;;;;;0.00;0.00;;;;;;;;;;5126607;27;20044;-59
2022/09/11 00:25:32;;;;;;;0.00;0.00;;;;;;;;;;5124794;27;20488;-60
2022/09/11 00:27:57;;;;;;;0.00;0.00;;;;;;;;;;5123616;27;20047;-60
2022/09/11 00:30:22;;;;;;;0.00;0.00;;;;;;;;;;5125916;27;20015;-58
2022/09/11 00:32:48;;;;;;;0.00;0.00;;;;;;;;;;5123076;27;20019;-58
2022/09/11 00:35:14;;;;;;;0.00;0.00;;;;;;;;;;5122025;27;20387;-58
2022/09/11 00:37:39;;;;;;;0.00;0.00;;;;;;;;;;5125912;27;20035;-58
2022/09/11 00:40:04;;;;;;;0.00;0.00;;;;;;;;;;5119033;27;20233;-58
2022/09/11 00:42:30;;;;;;;0.00;0.00;;;;;;;;;;5122206;27;20062;-58
2022/09/11 00:44:59;;;;;;;0.00;0.00;;;;;;;;;;5123308;27;20027;-57
2022/09/11 00:47:24;;;;;;;0.00;0.00;;;;;;;;;;5122053;27;20268;-57
2022/09/11 00:49:53;;;;;;;0.00;0.00;;;;;;;;;;5128626;27;20028;-58
2022/09/11 00:52:18;;;;;;;0.00;0.00;;;;;;;;;;5120937;27;20530;-58
2022/09/11 00:54:50;;;;;;;0.00;0.00;;;;;;;;;;5119005;27;20021;-57
2022/09/11 00:57:17;;;;;;;0.00;0.00;;;;;;;;;;5125427;27;20061;-59
2022/09/11 00:59:43;;;;;;;0.00;0.00;;;;;;;;;;5125168;27;20353;-58
2022/09/11 01:02:12;;;;;;;0.00;0.00;;;;;;;;;;5121397;27;20024;-58
2022/09/11 01:04:37;;;;;;;0.00;0.00;;;;;;;;;;5116396;27;20022;-56
2022/09/11 01:07:03;;;;;;;0.00;0.00;;;;;;;;;;5110246;28;20464;-57
2022/09/11 01:09:29;;;;;;;0.00;0.00;;;;;;;;;;5113503;27;20265;-57
2022/09/11 01:12:04;;;;;;;0.00;0.00;;;;;;;;;;5114378;27;20030;-57
2022/09/11 01:14:38;;;;;;;0.00;0.00;;;;;;;;;;5122239;27;20019;-56
2022/09/11 01:17:04;;;;;;;0.00;0.00;;;;;;;;;;5124287;27;20128;-58
2022/09/11 01:19:47;;;;;;;0.10;0.10;;;;;;;;;;5126614;27;20126;-58
2022/09/11 01:22:39;;;;;;;0.00;0.00;;;;;;;;;;5123335;27;20015;-59
2022/09/11 01:25:22;;;;;;;0.00;0.00;;;;;;;;;;5114494;27;20038;-58
2022/09/11 01:27:49;;;;;;;0.00;0.00;;;;;;;;;;5116221;27;20026;-59
2022/09/11 01:30:14;;;;;;;0.00;0.00;;;;;;;;;;5122610;27;20038;-58
2022/09/11 01:32:58;;;;;;;0.00;0.00;;;;;;;;;;5115280;27;20020;-56
2022/09/11 01:35:23;;;;;;;0.00;0.00;;;;;;;;;;5118304;27;20256;-58
2022/09/11 01:37:58;;;;;;;0.00;0.00;;;;;;;;;;5124058;27;20026;-59
2022/09/11 01:40:26;;;;;;;0.75;0.63;;;;;;;;;;5112376;27;20396;-59
2022/09/11 01:42:53;;;;;;;0.10;0.10;;;;;;;;;;5112295;27;20028;-58
2022/09/11 01:45:19;;;;;;;0.30;0.30;;;;;;;;;;5129074;27;20026;-58
2022/09/11 01:47:46;;;;;;;0.00;0.00;;;;;;;;;;5114715;27;20444;-57
2022/09/11 01:50:12;;;;;;;0.00;0.00;;;;;;;;;;5116504;27;20073;-58
2022/09/11 01:52:49;;;;;;;0.00;0.00;;;;;;;;;;5123889;27;20046;-58
2022/09/11 01:55:16;;;;;;;0.00;0.00;;;;;;;;;;5123651;27;20434;-58
2022/09/11 01:57:45;;;;;;;0.00;0.00;;;;;;;;;;5129739;27;20046;-57
2022/09/11 02:00:12;;;;;;;0.00;0.00;;;;;;;;;;5117833;27;20095;-59
2022/09/11 02:02:39;;;;;;;0.00;0.00;;;;;;;;;;5120760;27;20026;-58
2022/09/11 02:05:22;;;;;;;0.00;0.00;;;;;;;;;;5117088;27;20015;-58
2022/09/11 02:07:52;;;;;;;0.00;0.00;;;;;;;;;;5114840;27;20024;-58
2022/09/11 02:10:19;;;;;;;0.00;0.00;;;;;;;;;;5115334;27;20020;-58
2022/09/11 02:13:14;;;;;;;0.00;0.00;;;;;;;;;;5127743;27;20056;-57
2022/09/11 02:15:41;;;;;;;0.00;0.00;;;;;;;;;;5119702;27;20556;-57
2022/09/11 02:18:15;;;;;;;0.00;0.00;;;;;;;;;;5126082;27;20031;-58
2022/09/11 02:20:44;;;;;;;0.00;0.00;;;;;;;;;;5126280;27;20035;-56
2022/09/11 02:23:09;;;;;;;0.00;0.00;;;;;;;;;;5124633;27;20023;-56
2022/09/11 02:25:34;;;;;;;0.00;0.00;;;;;;;;;;5126426;27;20034;-57
2022/09/11 02:27:59;;;;;;;0.00;0.00;;;;;;;;;;5127993;27;20027;-56
2022/09/11 02:30:24;;;;;;;0.00;0.00;;;;;;;;;;5109063;28;20030;-58
2022/09/11 02:32:50;;;;;;;0.00;0.00;;;;;;;;;;5109785;28;20103;-58
2022/09/11 02:35:15;;;;;;;3.20;1.45;;;;;;;;;;5108988;27;20027;-59
2022/09/11 02:38:10;;;;;;;0.00;0.00;;;;;;;;;;5112668;27;20109;-59
2022/09/11 02:40:42;;;;;;;0.00;0.00;;;;;;;;;;5109305;27;20442;-57
2022/09/11 02:43:15;;;;;;;0.00;0.00;;;;;;;;;;5118778;27;20030;-56
2022/09/11 02:45:53;;;;;;;0.00;0.00;;;;;;;;;;5115822;27;20019;-57
2022/09/11 02:48:24;;;;;;;0.00;0.00;;;;;;;;;;5117800;27;20487;-56
2022/09/11 02:51:08;;;;;;;0.00;0.00;;;;;;;;;;5116867;28;20032;-60
2022/09/11 02:53:38;;;;;;;0.00;0.00;;;;;;;;;;5108766;28;20488;-60
2022/09/11 02:56:09;;;;;;;0.00;0.00;;;;;;;;;;5109104;28;20368;-61
2022/09/11 02:59:04;;;;;;;0.00;0.00;;;;;;;;;;5108542;28;20050;-61
2022/09/11 03:01:30;;;;;;;0.00;0.00;;;;;;;;;;5115576;28;20031;-61
2022/09/11 03:03:55;;;;;;;0.00;0.00;;;;;;;;;;5110393;28;20067;-54
2022/09/11 03:06:22;;;;;;;0.00;0.00;;;;;;;;;;5122176;27;20042;-57
2022/09/11 03:08:47;;;;;;;0.00;0.00;;;;;;;;;;5126196;27;20145;-54
2022/09/11 03:11:16;;;;;;;0.00;0.00;;;;;;;;;;5120580;28;20606;-58
2022/09/11 03:13:42;;;;;;;0.00;0.00;;;;;;;;;;5115321;28;20016;-58
2022/09/11 03:16:08;;;;;;;0.00;0.00;;;;;;;;;;5125923;27;20452;-58
2022/09/11 03:18:33;;;;;;;0.00;0.00;;;;;;;;;;5118216;28;20027;-56
2022/09/11 03:20:59;;;;;;;0.00;0.00;;;;;;;;;;5117409;28;20431;-57
2022/09/11 03:23:25;;;;;;;0.00;0.00;;;;;;;;;;5116615;27;20024;-57
2022/09/11 03:25:50;;;;;;;0.00;0.00;;;;;;;;;;5118648;28;20026;-57
2022/09/11 03:28:15;;;;;;;0.00;0.00;;;;;;;;;;5127556;28;20019;-56
2022/09/11 03:30:40;;;;;;;0.00;0.00;;;;;;;;;;5123130;27;20339;-57
2022/09/11 03:33:06;;;;;;;1.20;1.20;;;;;;;;;;5126941;27;20061;-56
2022/09/11 03:35:31;;;;;;;0.00;0.00;;;;;;;;;;5119323;27;20019;-52
2022/09/11 03:37:56;;;;;;;0.00;0.00;;;;;;;;;;5129226;27;20016;-56
2022/09/11 03:40:22;;;;;;;0.00;0.00;;;;;;;;;;5125057;27;20023;-56
2022/09/11 03:42:47;;;;;;;0.00;0.00;;;;;;;;;;5116589;27;20065;-57
2022/09/11 03:45:13;;;;;;;0.00;0.00;;;;;;;;;;5132178;27;20076;-57
2022/09/11 03:47:39;;;;;;;0.00;0.00;;;;;;;;;;5131058;27;20096;-56
2022/09/11 03:50:04;;;;;;;0.00;0.00;;;;;;;;;;5124376;27;20115;-60
2022/09/11 03:52:29;;;;;;;0.00;0.00;;;;;;;;;;5132168;27;20110;-60
2022/09/11 03:54:55;;;;;;;0.15;0.15;;;;;;;;;;5132519;27;20031;-60
2022/09/11 03:57:20;;;;;;;0.00;0.00;;;;;;;;;;5129071;27;20165;-58
2022/09/11 03:59:45;;;;;;;0.00;0.00;;;;;;;;;;5122836;27;20559;-57
2022/09/11 04:02:10;;;;;;;0.00;0.00;;;;;;;;;;5123668;27;20856;-57
2022/09/11 04:04:36;;;;;;;0.00;0.00;;;;;;;;;;5122729;27;20271;-58
2022/09/11 04:07:01;;;;;;;0.00;0.00;;;;;;;;;;5127400;27;20023;-58
2022/09/11 04:09:26;;;;;;;0.00;0.00;;;;;;;;;;5128528;27;20095;-57
2022/09/11 04:11:51;;;;;;;0.00;0.00;;;;;;;;;;5117594;27;20016;-56
2022/09/11 04:14:18;;;;;;;0.00;0.00;;;;;;;;;;5116341;27;20015;-57
2022/09/11 04:16:43;;;;;;;0.00;0.00;;;;;;;;;;5126587;27;20034;-57
2022/09/11 04:19:08;;;;;;;0.00;0.00;;;;;;;;;;5125118;27;20043;-57
2022/09/11 04:21:34;;;;;;;0.00;0.00;;;;;;;;;;5131592;27;20463;-57
2022/09/11 04:23:59;;;;;;;0.00;0.00;;;;;;;;;;5113529;27;20031;-56
2022/09/11 04:26:26;;;;;;;0.00;0.00;;;;;;;;;;5119848;27;20018;-58
2022/09/11 04:28:51;;;;;;;0.52;0.22;;;;;;;;;;5124513;27;20019;-58
2022/09/11 04:31:17;;;;;;;0.00;0.00;;;;;;;;;;5122469;27;20482;-56
2022/09/11 04:33:43;;;;;;;0.00;0.00;;;;;;;;;;5114593;27;20421;-57
2022/09/11 04:36:09;;;;;;;0.00;0.00;;;;;;;;;;5127576;27;20099;-58
2022/09/11 04:38:35;;;;;;;0.00;0.00;;;;;;;;;;5131556;27;20011;-56
2022/09/11 04:41:01;;;;;;;0.00;0.00;;;;;;;;;;5122676;27;20027;-57
2022/09/11 04:43:27;;;;;;;0.00;0.00;;;;;;;;;;5123331;27;20022;-57
2022/09/11 04:45:58;;;;;;;0.00;0.00;;;;;;;;;;5120146;27;20054;-57
2022/09/11 04:48:24;;;;;;;0.00;0.00;;;;;;;;;;5122047;27;20023;-58
2022/09/11 04:50:56;;;;;;;0.00;0.00;;;;;;;;;;5121002;27;20034;-57
2022/09/11 04:53:21;;;;;;;0.00;0.00;;;;;;;;;;5114533;27;20012;-58
2022/09/11 04:55:49;;;;;;;0.00;0.00;;;;;;;;;;5118512;27;20467;-59
2022/09/11 04:58:14;;;;;;;0.00;0.00;;;;;;;;;;5113546;27;20043;-57
2022/09/11 05:00:39;;;;;;;0.40;0.27;;;;;;;;;;5112279;27;20511;-58
2022/09/11 05:03:05;;;;;;;0.00;0.00;;;;;;;;;;5122244;27;20379;-58
2022/09/11 05:05:30;;;;;;;0.00;0.00;;;;;;;;;;5121249;27;20024;-58
2022/09/11 05:07:55;;;;;;;0.00;0.00;;;;;;;;;;5121250;27;20032;-58
2022/09/11 05:10:20;;;;;;;0.00;0.00;;;;;;;;;;5112938;27;20035;-59
2022/09/11 05:12:46;;;;;;;0.00;0.00;;;;;;;;;;5123627;27;20426;-58
2022/09/11 05:15:11;;;;;;;0.20;0.20;;;;;;;;;;5131687;27;20435;-57
2022/09/11 05:17:36;;;;;;;0.00;0.00;;;;;;;;;;5124232;27;20027;-56
2022/09/11 05:20:02;;;;;;;0.00;0.00;;;;;;;;;;5123040;27;20461;-57
2022/09/11 05:22:27;;;;;;;0.00;0.00;;;;;;;;;;5127962;27;20046;-57
2022/09/11 05:24:52;;;;;;;0.00;0.00;;;;;;;;;;5122289;27;20533;-58
2022/09/11 05:27:18;;;;;;;0.00;0.00;;;;;;;;;;5124114;27;20408;-56
2022/09/11 05:29:43;;;;;;;0.00;0.00;;;;;;;;;;5121877;27;20020;-58
2022/09/11 05:32:08;;;;;;;0.00;0.00;;;;;;;;;;5122435;27;20452;-59
2022/09/11 05:34:34;;;;;;;0.00;0.00;;;;;;;;;;5122048;27;20015;-58
2022/09/11 05:37:01;;;;;;;0.00;0.00;;;;;;;;;;5122198;27;20019;-57
2022/09/11 05:39:26;;;;;;;1.35;0.75;;;;;;;;;;5111644;27;20015;-58
2022/09/11 05:41:51;;;;;;;0.00;0.00;;;;;;;;;;5121060;27;20046;-58
2022/09/11 05:44:17;;;;;;;0.00;0.00;;;;;;;;;;5118643;27;20075;-58
2022/09/11 05:46:43;;;;;;;0.00;0.00;;;;;;;;;;5118989;27;20023;-58
2022/09/11 05:49:08;;;;;;;0.00;0.00;;;;;;;;;;5113497;27;20027;-58
2022/09/11 05:51:36;;;;;;;0.00;0.00;;;;;;;;;;5124463;27;20031;-57
2022/09/11 05:54:02;;;;;;;0.00;0.00;;;;;;;;;;5123530;27;20029;-53
2022/09/11 05:56:27;;;;;;;0.00;0.00;;;;;;;;;;5129135;27;20102;-56
2022/09/11 05:58:53;;;;;;;0.00;0.00;;;;;;;;;;5126266;27;20511;-56
2022/09/11 06:01:19;;;;;;;0.00;0.00;;;;;;;;;;5120880;27;20080;-58
2022/09/11 06:03:48;;;;;;;0.25;0.22;;;;;;;;;;5118732;27;20019;-57
2022/09/11 06:06:14;;;;;;;0.00;0.00;;;;;;;;;;5118255;27;20016;-58
2022/09/11 06:08:42;;;;;;;0.00;0.00;;;;;;;;;;5129452;27;20340;-57
2022/09/11 06:11:08;;;;;;;0.00;0.00;;;;;;;;;;5126056;27;20025;-60
2022/09/11 06:13:37;;;;;;;0.00;0.00;;;;;;;;;;5120221;27;20118;-60
2022/09/11 06:16:02;;;;;;;;;;;;;;;;;;5122534;27;20422;-59
2022/09/11 06:18:28;;;;;;;0.00;0.00;;;;;;;;;;5109556;28;19915;-59
2022/09/11 06:20:57;;;;;;;0.00;0.00;;;;;;;;;;5109439;27;20495;-59
2022/09/11 06:23:22;;;;;;;0.00;0.00;;;;;;;;;;5109480;27;20084;-59
2022/09/11 06:25:47;;;;;;;0.00;0.00;;;;;;;;;;5109091;28;20388;-57
2022/09/11 06:28:13;;;;;;;0.00;0.00;;;;;;;;;;5112494;27;20379;-58
2022/09/11 06:30:39;;;;;;;0.00;0.00;;;;;;;;;;5110314;27;20023;-59
2022/09/11 06:33:04;;;;;;;0.00;0.00;;;;;;;;;;5114714;27;20502;-59
2022/09/11 06:35:29;;;;;;;0.00;0.00;;;;;;;;;;5108633;28;20111;-59
2022/09/11 06:37:54;;;;;;;0.00;0.00;;;;;;;;;;5112773;27;20275;-59
2022/09/11 06:40:20;;;;;;;0.10;0.10;;;;;;;;;;5129572;27;20621;-58
2022/09/11 06:42:45;;;;;;;0.20;0.20;;;;;;;;;;5123472;27;20054;-59
2022/09/11 06:45:10;;;;;;;1.10;1.10;;;;;;;;;;5122293;27;20065;-60
2022/09/11 06:47:35;;;;;;;1.02;1.02;;;;;;;;;;5108882;28;20267;-58
2022/09/11 06:50:00;;;;;;;0.00;0.00;;;;;;;;;;5109034;28;20472;-59
2022/09/11 06:52:26;;;;;;;0.10;0.10;;;;;;;;;;5108528;28;20284;-59
2022/09/11 06:54:52;;;;;;;0.28;0.28;;;;;;;;;;5110333;27;20027;-59
2022/09/11 06:57:18;;;;;;;0.00;0.00;;;;;;;;;;5109834;27;20042;-59
2022/09/11 06:59:43;;;;;;;1.38;1.27;;;;;;;;;;5109056;28;20036;-60
2022/09/11 07:02:11;;;;;;;0.55;0.55;;;;;;;;;;5119933;28;20087;-60
2022/09/11 07:04:36;;;;;;;0.00;0.00;;;;;;;;;;5109137;28;20027;-60
2022/09/11 07:07:01;;;;;;;0.00;0.00;;;;;;;;;;5109005;28;20461;-60
2022/09/11 07:09:26;;;;;;;0.00;0.00;;;;;;;;;;5108176;28;20055;-60
2022/09/11 07:11:52;;;;;;;1.17;1.17;;;;;;;;;;5118637;27;20015;-60
2022/09/11 07:14:20;;;;;;;0.28;0.28;;;;;;;;;;5133656;27;20023;-60
2022/09/11 07:16:47;;;;;;;0.00;0.00;;;;;;;;;;5132723;27;20027;-60
2022/09/11 07:19:12;;;;;;;0.00;0.00;;;;;;;;;;5133026;27;20130;-61
2022/09/11 07:21:37;;;;;;;0.00;0.00;;;;;;;;;;5133218;27;20638;-60
2022/09/11 07:24:03;;;;;;;0.00;0.00;;;;;;;;;;5131920;27;20059;-60
2022/09/11 07:26:31;;;;;;;0.00;0.00;;;;;;;;;;5114321;27;20115;-60
2022/09/11 07:28:57;;;;;;;0.00;0.00;;;;;;;;;;5112910;28;20023;-61
2022/09/11 07:31:23;;;;;;;0.55;0.55;;;;;;;;;;5114285;27;20099;-60
2022/09/11 07:33:49;;;;;;;0.00;0.00;;;;;;;;;;5118982;27;20027;-59
2022/09/11 07:36:15;;;;;;;0.00;0.00;;;;;;;;;;5112775;28;20023;-60
2022/09/11 07:38:41;;;;;;;0.03;0.03;;;;;;;;;;5112300;27;20152;-60
2022/09/11 07:41:07;;;;;;;0.00;0.00;;;;;;;;;;5111053;27;20096;-61
2022/09/11 07:43:33;;;;;;;0.00;0.00;;;;;;;;;;5128799;27;20482;-60
2022/09/11 07:45:59;;;;;;;0.00;0.00;;;;;;;;;;5132214;27;20038;-60
2022/09/11 07:48:24;;;;;;;2.00;1.90;;;;;;;;;;5133107;27;20019;-60
2022/09/11 07:51:01;;;;;;;0.83;0.67;;;;;;;;;;5131970;27;20024;-60
2022/09/11 07:53:27;;;;;;;1.30;1.17;;;;;;;;;;5114723;27;20280;-60
2022/09/11 07:55:52;;;;;;;2.95;2.83;;;;;;;;;;5114737;27;20051;-60
2022/09/11 07:58:17;;;;;;;2.42;2.33;;;;;;;;;;5112837;27;20545;-60
2022/09/11 08:00:44;;;;;;;0.00;0.00;;;;;;;;;;5128318;27;20110;-60
2022/09/11 08:03:09;;;;;;;0.10;0.10;;;;;;;;;;5113805;27;20461;-60
2022/09/11 08:05:35;;;;;;;1.95;1.13;;;;;;;;;;5113161;27;20031;-60
2022/09/11 08:08:00;;;;;;;0.63;0.63;;;;;;;;;;5110117;28;20015;-60
2022/09/11 08:10:25;;;;;;;0.00;0.00;;;;;;;;;;5117116;27;20027;-60
2022/09/11 08:12:51;;;;;;;0.00;0.00;;;;;;;;;;5122575;27;20114;-60
2022/09/11 08:15:17;;;;;;;0.00;0.00;;;;;;;;;;5125110;27;20413;-60
2022/09/11 08:17:42;;;;;;;0.00;0.00;;;;;;;;;;5127488;27;20030;-61
2022/09/11 08:20:08;;;;;;;0.20;0.20;;;;;;;;;;5115955;27;20031;-60
2022/09/11 08:22:33;;;;;;;0.00;0.00;;;;;;;;;;5113324;27;20069;-60
2022/09/11 08:24:59;;;;;;;0.00;0.00;;;;;;;;;;5111363;28;20026;-60
2022/09/11 08:27:24;;;;;;;2.83;2.35;;;;;;;;;;5111172;28;20053;-60
2022/09/11 08:29:49;;;;;;;4.22;3.83;;;;;;;;;;5110930;27;20026;-60
2022/09/11 08:32:14;;;;;;;0.80;0.80;;;;;;;;;;5112161;27;20081;-62
2022/09/11 08:34:39;;;;;;;0.57;0.57;;;;;;;;;;5111087;27;20072;-61
2022/09/11 08:37:05;;;;;;;0.00;0.00;;;;;;;;;;5111828;28;20072;-60
2022/09/11 08:39:30;;;;;;;0.00;0.00;;;;;;;;;;5118509;27;20016;-61
2022/09/11 08:42:07;;;;;;;0.00;0.00;;;;;;;;;;5129497;27;20027;-61
2022/09/11 08:44:35;;;;;;;0.93;0.65;;;;;;;;;;5109800;28;20441;-61
2022/09/11 08:47:05;;;;;;;0.17;0.17;;;;;;;;;;5110992;28;20024;-61
2022/09/11 08:49:42;;;;;;;1.13;1.02;;;;;;;;;;5110048;27;20022;-61
2022/09/11 08:52:09;;;;;;;3.05;2.85;;;;;;;;;;5114773;27;20027;-61
2022/09/11 08:54:37;;;;;;;3.75;2.97;;;;;;;;;;5110616;27;20047;-61
2022/09/11 08:57:04;;;;;;;0.00;0.00;;;;;;;;;;5110562;28;20103;-61
2022/09/11 08:59:29;;;;;;;0.45;0.45;;;;;;;;;;5109790;28;20032;-61
2022/09/11 09:02:06;;;;;;;0.00;0.00;;;;;;;;;;5111204;27;20050;-61
2022/09/11 09:05:11;;;;;;;0.00;0.00;;;;;;;;;;5111007;27;20349;-61
2022/09/11 09:07:37;;;;;;;0.00;0.00;;;;;;;;;;5076894;28;20106;-61
2022/09/11 09:10:06;;;;;;;0.00;0.00;;;;;;;;;;5078098;28;20127;-60
2022/09/11 09:12:50;;;;;;;0.00;0.00;;;;;;;;;;5060766;28;20117;-61
2022/09/11 09:15:34;;;;;;;0.00;0.00;;;;;;;;;;5077028;28;20037;-60
2022/09/11 09:18:00;;;;;;;0.00;0.00;;;;;;;;;;5077027;28;20025;-60
2022/09/11 09:20:28;;;;;;;1.30;1.20;;;;;;;;;;5079143;28;20030;-60
2022/09/11 09:22:59;;;;;;;0.80;0.80;;;;;;;;;;5077351;28;20024;-60
2022/09/11 09:25:25;;;;;;;0.52;0.52;;;;;;;;;;5076906;28;20028;-60
2022/09/11 09:27:55;;;;;;;0.00;0.00;;;;;;;;;;5076317;28;20028;-60
2022/09/11 09:30:26;;;;;;;1.80;1.75;;;;;;;;;;5078780;28;20054;-60
2022/09/11 09:33:04;;;;;;;0.00;0.00;;;;;;;;;;5076711;28;20562;-60
2022/09/11 09:35:39;;;;;;;0.00;0.00;;;;;;;;;;5077220;28;20063;-60
2022/09/11 09:38:15;;;;;;;0.00;0.00;;;;;;;;;;5097036;27;20027;-60
2022/09/11 09:41:01;;;;;;;0.00;0.00;;;;;;;;;;5109288;27;20114;-60
2022/09/11 09:43:41;;;;;;;0.00;0.00;;;;;;;;;;5107792;27;21635;-60
2022/09/11 09:46:12;;;;;;;1.48;1.15;;;;;;;;;;5109237;28;20026;-60
2022/09/11 09:48:38;;;;;;;0.00;0.00;;;;;;;;;;5111962;27;20038;-60
2022/09/11 09:51:03;;;;;;;0.00;0.00;;;;;;;;;;5110313;27;20027;-60
2022/09/11 09:53:40;;;;;;;0.00;0.00;;;;;;;;;;5109280;28;20380;-61
2022/09/11 09:56:05;;;;;;;0.00;0.00;;;;;;;;;;5109632;28;20084;-61
2022/09/11 09:58:38;;;;;;;0.00;0.00;;;;;;;;;;5117324;27;20088;-61
2022/09/11 10:01:22;;;;;;;0.55;0.55;;;;;;;;;;5112793;27;20484;-61
2022/09/11 10:04:07;;;;;;;0.00;0.00;;;;;;;;;;5110358;27;20119;-61
2022/09/11 10:06:32;;;;;;;0.00;0.00;;;;;;;;;;5108975;28;20362;-61
2022/09/11 10:09:01;;;;;;;0.52;0.52;;;;;;;;;;5113412;27;20023;-61
2022/09/11 10:11:27;;;;;;;0.80;0.80;;;;;;;;;;5129368;27;20044;-61
2022/09/11 10:13:53;;;;;;;1.98;1.88;;;;;;;;;;5112575;27;20024;-61
2022/09/11 10:16:19;;;;;;;0.00;0.00;;;;;;;;;;5108300;28;20031;-60
2022/09/11 10:18:46;;;;;;;0.55;0.55;;;;;;;;;;5111300;27;20020;-61
2022/09/11 10:21:11;;;;;;;1.80;1.80;;;;;;;;;;5108419;27;20027;-61
2022/09/11 10:23:51;;;;;;;0.00;0.00;;;;;;;;;;5121383;27;20509;-61
2022/09/11 10:26:35;;;;;;;1.15;1.15;;;;;;;;;;5110748;27;20253;-60
2022/09/11 10:29:06;;;;;;;0.10;0.10;;;;;;;;;;5115798;27;20043;-60
2022/09/11 10:31:32;;;;;;;1.45;1.38;;;;;;;;;;5111013;27;20066;-60
2022/09/11 10:33:59;;;;;;;0.00;0.00;;;;;;;;;;5118930;27;20100;-60
2022/09/11 10:36:26;;;;;;;0.57;0.57;;;;;;;;;;5112971;27;20027;-60
2022/09/11 10:38:51;;;;;;;0.00;0.00;;;;;;;;;;5119452;27;20028;-60
2022/09/11 10:41:33;;;;;;;0.00;0.00;;;;;;;;;;5108692;27;20020;-60
2022/09/11 10:44:11;;;;;;;1.65;1.55;;;;;;;;;;5123934;27;20027;-60
2022/09/11 10:46:38;;;;;;;2.55;2.42;;;;;;;;;;5110615;27;20544;-60
2022/09/11 10:49:18;;;;;;;0.00;0.00;;;;;;;;;;5113155;27;20031;-60
2022/09/11 10:51:57;;;;;;;0.00;0.00;;;;;;;;;;5124385;27;20034;-60
2022/09/11 10:54:28;;;;;;;0.03;0.03;;;;;;;;;;5108166;28;20030;-60
2022/09/11 10:56:59;;;;;;;0.55;0.55;;;;;;;;;;5108251;27;20320;-61
2022/09/11 10:59:35;;;;;;;0.00;0.00;;;;;;;;;;5115297;28;20058;-61
2022/09/11 11:02:02;;;;;;;0.00;0.00;;;;;;;;;;5114472;28;20115;-60
2022/09/11 11:04:28;;;;;;;2.55;2.15;;;;;;;;;;5109334;28;20016;-60
2022/09/11 11:06:56;;;;;;;0.00;0.00;;;;;;;;;;5111896;28;20027;-60
2022/09/11 11:09:40;;;;;;;0.65;0.65;;;;;;;;;;5119386;27;20020;-60
2022/09/11 11:12:12;;;;;;;3.20;1.45;;;;;;;;;;5115525;28;20306;-60
2022/09/11 11:14:56;;;;;;;0.00;0.00;;;;;;;;;;5111302;28;20602;-60
2022/09/11 11:17:44;;;;;;;0.00;0.00;;;;;;;;;;5110914;28;20027;-60
2022/09/11 11:20:30;;;;;;;5.68;1.90;;;;;;;;;;5108616;28;20027;-61
2022/09/11 11:23:27;;;;;;;0.00;0.00;;;;;;;;;;5108762;28;20142;-60
2022/09/11 11:26:11;;;;;;;0.00;0.00;;;;;;;;;;5105042;28;20023;-61
2022/09/11 11:28:47;;;;;;;0.00;0.00;;;;;;;;;;5113706;28;20023;-61
2022/09/11 11:31:15;;;;;;;3.25;0.35;;;;;;;;;;5108446;28;20014;-60
2022/09/11 11:33:59;;;;;;;0.68;0.68;;;;;;;;;;5110856;28;20026;-61
2022/09/11 11:36:44;;;;;;;0.00;0.00;;;;;;;;;;5108394;28;20064;-59
2022/09/11 11:39:21;;;;;;;0.00;0.00;;;;;;;;;;5109568;28;20026;-59
2022/09/11 11:42:06;;;;;;;0.17;0.05;;;;;;;;;;5107732;28;20023;-59
2022/09/11 11:44:47;;;;;;;0.00;0.00;;;;;;;;;;5116671;28;20038;-59
2022/09/11 11:47:13;;;;;;;0.00;0.00;;;;;;;;;;5109841;28;20065;-59
2022/09/11 11:50:05;;;;;;;0.30;0.30;;;;;;;;;;5111288;28;20457;-59
2022/09/11 11:52:30;;;;;;;0.00;0.00;;;;;;;;;;5095561;28;20050;-60
2022/09/11 11:55:15;;;;;;;0.00;0.00;;;;;;;;;;5107776;28;20035;-59
2022/09/11 11:57:43;;;;;;;1.88;1.80;;;;;;;;;;5111119;27;20039;-59
2022/09/11 12:00:13;;;;;;;1.30;1.15;;;;;;;;;;5114806;27;20048;-59
2022/09/11 12:02:49;;;;;;;0.52;0.52;;;;;;;;;;5115809;27;20102;-59
2022/09/11 12:05:23;;;;;;;0.00;0.00;;;;;;;;;;5113214;27;20019;-58
2022/09/11 12:07:49;;;;;;;1.55;1.27;;;;;;;;;;5112228;27;20064;-59
2022/09/11 12:10:34;;;;;;;0.90;0.63;;;;;;;;;;5113581;27;20043;-59
2022/09/11 12:13:01;;;;;;;0.00;0.00;;;;;;;;;;5115191;27;20027;-59
2022/09/11 12:15:31;;;;;;;0.00;0.00;;;;;;;;;;5119031;27;20482;-60
2022/09/11 12:18:14;;;;;;;0.00;0.00;;;;;;;;;;5117170;27;20113;-59
2022/09/11 12:20:43;;;;;;;0.00;0.00;;;;;;;;;;5113817;27;20076;-59
2022/09/11 12:23:27;;;;;;;0.73;0.73;;;;;;;;;;5112036;27;20020;-59
2022/09/11 12:26:14;;;;;;;1.77;1.08;;;;;;;;;;5110916;28;20073;-58
2022/09/11 12:28:40;;;;;;;0.00;0.00;;;;;;;;;;5110891;27;20024;-57
2022/09/11 12:31:06;;;;;;;0.00;0.00;;;;;;;;;;5110892;28;20042;-58
2022/09/11 12:33:44;;;;;;;0.28;0.28;;;;;;;;;;5112264;27;20122;-58
2022/09/11 12:36:32;;;;;;;0.28;0.28;;;;;;;;;;5111364;28;20110;-58
2022/09/11 12:39:15;;;;;;;3.05;0.90;;;;;;;;;;5110191;27;20031;-58
2022/09/11 12:41:41;;;;;;;1.75;1.60;;;;;;;;;;5112316;27;20053;-59
2022/09/11 12:44:28;;;;;;;2.30;0.35;;;;;;;;;;5116066;27;20023;-58
2022/09/11 12:46:53;;;;;;;0.00;0.00;;;;;;;;;;5109725;27;20089;-58
2022/09/11 12:49:19;;;;;;;0.00;0.00;;;;;;;;;;5125574;27;20019;-58
2022/09/11 12:51:52;;;;;;;2.63;2.42;;;;;;;;;;5130429;27;20788;-59
2022/09/11 12:54:21;;;;;;;0.08;0.08;;;;;;;;;;5110426;28;20029;-59
2022/09/11 12:56:49;;;;;;;0.95;0.95;;;;;;;;;;5116005;27;20033;-58
2022/09/11 12:59:22;;;;;;;0.22;0.10;;;;;;;;;;5119550;27;20048;-59
2022/09/11 13:01:48;;;;;;;0.30;0.22;;;;;;;;;;5109939;28;20102;-59
2022/09/11 13:04:15;;;;;;;0.43;0.43;;;;;;;;;;5110386;27;20114;-58
2022/09/11 13:07:02;;;;;;;1.25;0.28;;;;;;;;;;5114308;27;20019;-59
2022/09/11 13:09:30;;;;;;;0.82;0.82;;;;;;;;;;5109910;27;20023;-59
2022/09/11 13:11:56;;;;;;;0.00;0.00;;;;;;;;;;5113481;27;20353;-59
2022/09/11 13:14:27;;;;;;;0.00;0.00;;;;;;;;;;5110241;28;20023;-59
2022/09/11 13:16:57;;;;;;;0.00;0.00;;;;;;;;;;5110937;27;20031;-60
2022/09/11 13:19:22;;;;;;;0.35;0.35;;;;;;;;;;5122620;27;20030;-58
2022/09/11 13:21:50;;;;;;;0.00;0.00;;;;;;;;;;5120994;27;20024;-59
2022/09/11 13:24:32;;;;;;;0.00;0.00;;;;;;;;;;5110429;27;22158;-58
2022/09/11 13:26:59;;;;;;;0.00;0.00;;;;;;;;;;5126985;27;20445;-59
2022/09/11 13:29:29;;;;;;;0.00;0.00;;;;;;;;;;5129996;27;20019;-59
2022/09/11 13:31:58;;;;;;;0.00;0.00;;;;;;;;;;5130058;27;20368;-58
2022/09/11 13:34:27;;;;;;;0.00;0.00;;;;;;;;;;5110739;27;20024;-59
2022/09/11 13:36:55;;;;;;;0.00;0.00;;;;;;;;;;5108753;28;20073;-59
2022/09/11 13:39:22;;;;;;;0.00;0.00;;;;;;;;;;5116839;27;20141;-58
2022/09/11 13:41:49;;;;;;;0.00;0.00;;;;;;;;;;5113019;27;20084;-59
2022/09/11 13:44:23;;;;;;;0.00;0.00;;;;;;;;;;5110883;27;20357;-59
2022/09/11 13:46:50;;;;;;;0.00;0.00;;;;;;;;;;5112964;27;20416;-59
2022/09/11 13:49:21;;;;;;;0.00;0.00;;;;;;;;;;5123540;27;20024;-59
2022/09/11 13:51:47;;;;;;;0.00;0.00;;;;;;;;;;5114926;27;20019;-59
2022/09/11 13:54:31;;;;;;;0.00;0.00;;;;;;;;;;5116215;27;20023;-59
2022/09/11 13:56:56;;;;;;;0.00;0.00;;;;;;;;;;5112597;27;20032;-59
2022/09/11 13:59:24;;;;;;;0.00;0.00;;;;;;;;;;5113497;27;20152;-59
2022/09/11 14:01:52;;;;;;;0.60;0.60;;;;;;;;;;5109023;27;20257;-59
2022/09/11 14:04:17;;;;;;;0.00;0.00;;;;;;;;;;5110244;27;20076;-60
2022/09/11 14:06:44;;;;;;;0.40;0.38;;;;;;;;;;5109219;28;20024;-59
2022/09/11 14:09:14;;;;;;;0.00;0.00;;;;;;;;;;5112504;27;20040;-59
2022/09/11 14:11:40;;;;;;;0.00;0.00;;;;;;;;;;5109067;27;20023;-60
2022/09/11 14:14:06;;;;;;;0.00;0.00;;;;;;;;;;5110757;27;20027;-59
2022/09/11 14:16:37;;;;;;;0.63;0.63;;;;;;;;;;5126163;27;20383;-59
2022/09/11 14:19:21;;;;;;;5.95;0.85;;;;;;;;;;5110406;27;20035;-60
2022/09/11 14:21:48;;;;;;;0.00;0.00;;;;;;;;;;5106653;28;20054;-59
2022/09/11 14:24:31;;;;;;;0.00;0.00;;;;;;;;;;5120271;27;20027;-59
2022/09/11 14:26:57;;;;;;;0.00;0.00;;;;;;;;;;5122840;27;20042;-60
2022/09/11 14:29:23;;;;;;;0.00;0.00;;;;;;;;;;5109096;28;20012;-60
2022/09/11 14:31:50;;;;;;;0.00;0.00;;;;;;;;;;5107946;28;20046;-59
2022/09/11 14:34:16;;;;;;;0.00;0.00;;;;;;;;;;5110089;27;20503;-60
2022/09/11 14:37:00;;;;;;;0.00;0.00;;;;;;;;;;5110579;27;20410;-60
2022/09/11 14:39:31;;;;;;;4.18;0.70;;;;;;;;;;5109317;28;20034;-60
2022/09/11 14:41:57;;;;;;;0.00;0.00;;;;;;;;;;5108632;28;20040;-60
2022/09/11 14:44:25;;;;;;;0.00;0.00;;;;;;;;;;5108697;28;20080;-60
2022/09/11 14:46:50;;;;;;;0.28;0.28;;;;;;;;;;5125421;27;20019;-60
2022/09/11 14:49:15;;;;;;;0.00;0.00;;;;;;;;;;5127715;27;20035;-59
2022/09/11 14:51:41;;;;;;;0.00;0.00;;;;;;;;;;5121883;27;20108;-60
2022/09/11 14:54:12;;;;;;;0.00;0.00;;;;;;;;;;5109138;28;20020;-60
2022/09/11 14:56:39;;;;;;;0.00;0.00;;;;;;;;;;5110766;27;20027;-59